createdAt,value
2023-01-01T00:01:50.399Z,100377.91
2023-01-01T00:04:19.670Z,100343.53
2023-01-01T00:06:48.781Z,100394.75
2023-01-01T00:09:15.863Z,100392.81
2023-01-01T00:11:45.107Z,100474.97
2023-01-01T00:14:12.740Z,100388.53
2023-01-01T00:16:41.305Z,100358.09
2023-01-01T00:19:08.664Z,100462.66
2023-01-01T00:21:39.013Z,100528.03
2023-01-01T00:24:06.951Z,100385.81
2023-01-01T00:26:35.471Z,100362.38
2023-01-01T00:29:07.119Z,100422.66
2023-01-01T00:34:57.003Z,100520.75
2023-01-01T00:37:23.932Z,100534.91
2023-01-01T00:39:50.896Z,100412.47
2023-01-01T00:42:24.284Z,100377.34
2023-01-01T00:44:57.116Z,100491.88
2023-01-01T00:47:23.893Z,100488.63
2023-01-01T00:49:51.075Z,100426.31
2023-01-01T00:52:19.261Z,100529.69
2023-01-01T00:54:46.102Z,100383.41
2023-01-01T00:57:13.747Z,100503.38
2023-01-01T00:59:42.835Z,100526.28
2023-01-01T01:02:10.120Z,100506.31
2023-01-01T01:04:36.984Z,100572.28
2023-01-01T01:07:03.726Z,100549.34
2023-01-01T01:09:32.016Z,100444.94
2023-01-01T01:12:17.267Z,100497.72
2023-01-01T01:14:50.859Z,100530.19
2023-01-01T01:17:17.980Z,100528.31
2023-01-01T01:19:50.249Z,100594.56
2023-01-01T01:22:25.990Z,100589.75
2023-01-01T01:25:05.830Z,100514.78
2023-01-01T01:27:33.862Z,100561.25
2023-01-01T01:30:02.873Z,100612.28
2023-01-01T01:32:44.630Z,100434.63
2023-01-01T01:35:12.129Z,100426.00
2023-01-01T01:37:39.441Z,100583.97
2023-01-01T01:40:23.268Z,100624.53
2023-01-01T01:42:51.597Z,100504.53
2023-01-01T01:45:20.504Z,100476.38
2023-01-01T01:48:11.207Z,100623.78
2023-01-01T01:50:54.887Z,100636.00
2023-01-01T01:53:29.721Z,100581.56
2023-01-01T01:56:03.434Z,100626.63
2023-01-01T01:58:38.989Z,100467.34
2023-01-01T02:01:11.636Z,100590.25
2023-01-01T02:03:44.015Z,100642.03
2023-01-01T02:06:13.558Z,100436.31
2023-01-01T02:08:40.648Z,100558.41
2023-01-01T02:11:09.276Z,100481.84
2023-01-01T02:13:36.235Z,100444.66
2023-01-01T02:16:12.039Z,100634.44
2023-01-01T02:18:46.632Z,100550.25
2023-01-01T02:21:23.414Z,100503.41
2023-01-01T02:24:14.592Z,100618.75
2023-01-01T02:26:53.347Z,100432.53
2023-01-01T02:29:30.280Z,100563.28
2023-01-01T02:32:09.339Z,100434.97
2023-01-01T02:34:40.882Z,100470.84
2023-01-01T02:37:13.363Z,100566.84
2023-01-01T02:39:45.639Z,100569.28
2023-01-01T02:42:12.975Z,100648.06
2023-01-01T02:44:44.867Z,100602.47
2023-01-01T02:47:14.205Z,100482.50
2023-01-01T02:49:54.080Z,100656.47
2023-01-01T02:52:40.817Z,100661.06
2023-01-01T02:55:16.540Z,100634.66
2023-01-01T02:57:50.985Z,100580.50
2023-01-01T03:00:21.320Z,100535.47
2023-01-01T03:03:14.471Z,100534.41
2023-01-01T03:05:51.737Z,100648.56
2023-01-01T03:08:27.213Z,100503.72
2023-01-01T03:11:04.862Z,100704.75
2023-01-01T03:13:41.565Z,100678.06
2023-01-01T03:16:16.181Z,100712.66
2023-01-01T03:21:51.833Z,100666.22
2023-01-01T03:24:51.268Z,100596.59
2023-01-01T03:27:28.701Z,100596.06
2023-01-01T03:30:55.858Z,100610.06
2023-01-01T03:39:59.401Z,100695.09
2023-01-01T03:42:52.815Z,100582.06
2023-01-01T03:46:15.624Z,100650.63
2023-01-01T03:48:50.340Z,100704.91
2023-01-01T03:51:31.455Z,100477.59
2023-01-01T03:54:08.261Z,100707.09
2023-01-01T03:56:44.873Z,100673.91
2023-01-01T03:59:25.291Z,100704.91
2023-01-01T04:02:08.769Z,100507.03
2023-01-01T04:04:49.776Z,100696.25
2023-01-01T04:07:24.849Z,100654.38
2023-01-01T04:09:56.311Z,100548.84
2023-01-01T04:18:31.388Z,100564.75
2023-01-01T04:21:12.369Z,100634.53
2023-01-01T04:26:34.058Z,100560.44
2023-01-01T04:29:03.157Z,100629.25
2023-01-01T04:31:31.296Z,100566.38
2023-01-01T04:34:04.481Z,100736.47
2023-01-01T04:36:33.727Z,100717.06
2023-01-01T04:39:00.945Z,100750.53
2023-01-01T04:41:36.775Z,100541.84
2023-01-01T04:44:03.793Z,100617.16
2023-01-01T04:46:32.627Z,100708.16
2023-01-01T04:48:59.609Z,100613.94
2023-01-01T04:51:26.491Z,100580.19
2023-01-01T04:54:00.257Z,100711.66
2023-01-01T04:56:29.162Z,100615.56
2023-01-01T04:58:56.119Z,100671.44
2023-01-01T05:01:24.625Z,100573.97
2023-01-01T05:03:54.473Z,100753.28
2023-01-01T05:06:21.928Z,100725.22
2023-01-01T05:08:51.025Z,100676.63
2023-01-01T05:11:26.514Z,100569.63
2023-01-01T05:13:58.225Z,100556.13
2023-01-01T05:16:27.339Z,100562.34
2023-01-01T05:19:04.915Z,100599.91
2023-01-01T05:21:34.064Z,100563.16
2023-01-01T05:24:05.725Z,100641.50
2023-01-01T05:26:41.793Z,100784.72
2023-01-01T05:29:16.868Z,100569.63
2023-01-01T05:31:48.356Z,100706.34
2023-01-01T05:34:24.510Z,100787.94
2023-01-01T05:37:02.524Z,100685.00
2023-01-01T05:39:29.538Z,100792.28
2023-01-01T05:42:15.378Z,100583.09
2023-01-01T05:44:45.220Z,100828.53
2023-01-01T05:47:12.190Z,100628.50
2023-01-01T05:49:39.235Z,100669.06
2023-01-01T05:52:06.020Z,100648.50
2023-01-01T05:54:32.776Z,100715.78
2023-01-01T05:56:59.534Z,100632.28
2023-01-01T05:59:28.642Z,100689.31
2023-01-01T06:01:58.474Z,100829.91
2023-01-01T06:04:25.493Z,100711.69
2023-01-01T06:06:52.656Z,100856.94
2023-01-01T06:09:19.421Z,100757.41
2023-01-01T06:11:46.456Z,100662.19
2023-01-01T06:14:14.949Z,100880.19
2023-01-01T06:16:43.151Z,100772.50
2023-01-01T06:19:11.408Z,100814.41
2023-01-01T06:21:38.535Z,100718.63
2023-01-01T06:24:06.436Z,100875.28
2023-01-01T06:26:33.632Z,100891.81
2023-01-01T06:29:01.448Z,100855.00
2023-01-01T06:31:34.306Z,100725.06
2023-01-01T06:34:13.748Z,100918.31
2023-01-01T06:36:46.021Z,100783.94
2023-01-01T06:39:12.940Z,100863.31
2023-01-01T06:42:00.354Z,100953.72
2023-01-01T06:44:38.978Z,100925.31
2023-01-01T06:47:08.688Z,100790.69
2023-01-01T06:49:39.464Z,100957.81
2023-01-01T06:52:06.192Z,100888.47
2023-01-01T06:54:33.040Z,100824.50
2023-01-01T06:56:59.781Z,100929.00
2023-01-01T06:59:26.566Z,100888.38
2023-01-01T07:01:53.459Z,100971.81
2023-01-01T07:04:20.469Z,100862.06
2023-01-01T07:06:49.094Z,100843.38
2023-01-01T07:09:16.206Z,100968.00
2023-01-01T07:11:42.977Z,100814.63
2023-01-01T07:14:09.694Z,100937.63
2023-01-01T07:16:36.545Z,100907.19
2023-01-01T07:19:07.516Z,100998.81
2023-01-01T07:21:43.963Z,100932.34
2023-01-01T07:24:14.417Z,101004.16
2023-01-01T07:26:41.811Z,101023.69
2023-01-01T07:29:09.116Z,100936.59
2023-01-01T07:31:37.316Z,100989.47
2023-01-01T07:34:04.945Z,100859.31
2023-01-01T07:36:31.823Z,100883.16
2023-01-01T07:38:58.822Z,100862.03
2023-01-01T07:41:27.018Z,101088.00
2023-01-01T07:43:56.575Z,101059.38
2023-01-01T07:46:23.712Z,100965.47
2023-01-01T07:48:50.632Z,101073.72
2023-01-01T07:51:17.335Z,100886.81
2023-01-01T07:53:44.362Z,100904.63
2023-01-01T07:56:11.302Z,101046.47
2023-01-01T07:58:40.926Z,100997.56
2023-01-01T08:01:13.290Z,100979.94
2023-01-01T08:03:40.635Z,101109.59
2023-01-01T08:06:09.195Z,100996.38
2023-01-01T08:08:36.101Z,100993.03
2023-01-01T08:11:05.927Z,101040.81
2023-01-01T08:13:32.838Z,101128.41
2023-01-01T08:16:01.645Z,100972.94
2023-01-01T08:18:28.644Z,101159.84
2023-01-01T08:20:55.429Z,101082.78
2023-01-01T08:23:22.412Z,100955.84
2023-01-01T08:25:49.191Z,101049.34
2023-01-01T08:28:15.898Z,101165.25
2023-01-01T08:30:44.348Z,101109.53
2023-01-01T08:33:12.532Z,101009.13
2023-01-01T08:35:42.482Z,101051.38
2023-01-01T08:38:11.796Z,101182.06
2023-01-01T08:40:38.963Z,101204.78
2023-01-01T08:43:05.943Z,101203.72
2023-01-01T08:45:33.501Z,101032.78
2023-01-01T08:48:01.387Z,101203.91
2023-01-01T08:50:29.542Z,101210.22
2023-01-01T08:52:58.277Z,101192.78
2023-01-01T08:55:25.097Z,101102.06
2023-01-01T08:57:52.047Z,101199.38
2023-01-01T09:00:19.193Z,101152.94
2023-01-01T09:02:46.057Z,101189.25
2023-01-01T09:05:12.895Z,101199.78
2023-01-01T09:07:41.494Z,101135.06
2023-01-01T09:10:11.467Z,101113.84
2023-01-01T09:12:42.642Z,101210.19
2023-01-01T09:15:17.775Z,101226.13
2023-01-01T09:17:44.971Z,101067.53
2023-01-01T09:20:13.756Z,101180.66
2023-01-01T09:22:44.593Z,101032.44
2023-01-01T09:25:11.441Z,101095.34
2023-01-01T09:27:38.209Z,101042.59
2023-01-01T09:30:06.299Z,101107.50
2023-01-01T09:32:33.182Z,101125.41
2023-01-01T09:34:59.931Z,101106.06
2023-01-01T09:37:26.837Z,101246.34
2023-01-01T09:39:55.312Z,101167.28
2023-01-01T09:42:36.166Z,101267.56
2023-01-01T09:45:13.488Z,101122.47
2023-01-01T09:47:42.896Z,101253.34
2023-01-01T09:50:15.122Z,101210.50
2023-01-01T09:52:51.267Z,101119.53
2023-01-01T09:55:43.683Z,101271.91
2023-01-01T09:58:11.908Z,101168.91
2023-01-01T10:00:41.612Z,101269.25
2023-01-01T10:03:25.486Z,101278.75
2023-01-01T10:06:00.214Z,101134.72
2023-01-01T10:08:37.386Z,101090.47
2023-01-01T10:11:16.095Z,101280.09
2023-01-01T10:13:47.076Z,101118.78
2023-01-01T10:16:25.470Z,101211.75
2023-01-01T10:18:56.648Z,101212.81
2023-01-01T10:21:27.346Z,101153.91
2023-01-01T10:23:57.905Z,101272.53
2023-01-01T10:26:28.521Z,101288.38
2023-01-01T10:29:00.360Z,101228.00
2023-01-01T10:31:32.545Z,101294.25
2023-01-01T10:34:01.702Z,101292.09
2023-01-01T10:36:28.579Z,101232.53
2023-01-01T10:38:55.241Z,101221.91
2023-01-01T10:41:22.059Z,101214.84
2023-01-01T10:43:50.422Z,101312.38
2023-01-01T10:46:27.622Z,101298.53
2023-01-01T10:49:07.941Z,101302.38
2023-01-01T10:51:37.981Z,101302.91
2023-01-01T10:54:04.966Z,101310.00
2023-01-01T10:56:40.433Z,101301.94
2023-01-01T10:59:37.347Z,101306.28
2023-01-01T11:02:15.824Z,101170.00
2023-01-01T11:04:43.165Z,101272.66
2023-01-01T11:07:18.079Z,101298.22
2023-01-01T11:10:02.669Z,101251.50
2023-01-01T11:13:03.495Z,101315.56
2023-01-01T11:15:25.609Z,101254.69
2023-01-01T11:17:53.616Z,101305.16
2023-01-01T11:20:38.371Z,101157.09
2023-01-01T11:23:27.571Z,101250.69
2023-01-01T11:26:02.774Z,101297.44
2023-01-01T11:28:30.784Z,101280.63
2023-01-01T11:31:13.920Z,101207.38
2023-01-01T11:33:47.007Z,101381.63
2023-01-01T11:36:34.672Z,101189.16
2023-01-01T11:39:14.043Z,101369.72
2023-01-01T11:41:55.669Z,101210.28
2023-01-01T11:44:30.751Z,101367.06
2023-01-01T11:47:15.035Z,101170.84
2023-01-01T11:50:03.524Z,101364.34
2023-01-01T11:52:44.873Z,101353.53
2023-01-01T11:55:19.810Z,101367.66
2023-01-01T11:58:03.997Z,101341.69
2023-01-01T12:01:28.250Z,101246.31
2023-01-01T12:04:03.107Z,101341.94
2023-01-01T12:06:50.589Z,101183.13
2023-01-01T12:09:39.566Z,101174.34
2023-01-01T12:12:29.603Z,101163.56
2023-01-01T12:15:03.789Z,101173.88
2023-01-01T12:18:04.919Z,101303.50
2023-01-01T12:23:35.110Z,101381.41
2023-01-01T12:26:44.285Z,101168.00
2023-01-01T12:29:58.055Z,101293.97
2023-01-01T12:32:42.269Z,101338.00
2023-01-01T12:35:20.267Z,101338.00
2023-01-01T12:38:09.361Z,101192.03
2023-01-01T12:40:42.975Z,101246.16
2023-01-01T12:43:12.832Z,101205.50
2023-01-01T12:45:55.268Z,101356.28
2023-01-01T12:48:42.212Z,101304.97
2023-01-01T12:51:25.103Z,101364.81
2023-01-01T12:54:08.965Z,101379.47
2023-01-01T12:56:43.021Z,101348.53
2023-01-01T12:59:15.620Z,101263.97
2023-01-01T13:01:43.069Z,101365.34
2023-01-01T13:04:14.460Z,101347.91
2023-01-01T13:06:47.446Z,101302.50
2023-01-01T13:09:18.721Z,101378.81
2023-01-01T13:11:51.208Z,101337.31
2023-01-01T13:14:18.062Z,101293.81
2023-01-01T13:16:50.620Z,101363.06
2023-01-01T13:19:27.037Z,101283.63
2023-01-01T13:21:54.325Z,101239.44
2023-01-01T13:24:24.683Z,101276.34
2023-01-01T13:26:52.268Z,101194.00
2023-01-01T13:29:33.318Z,101280.28
2023-01-01T13:32:05.556Z,101258.03
2023-01-01T13:34:35.397Z,101224.09
2023-01-01T13:37:27.839Z,101385.19
2023-01-01T13:39:58.027Z,101397.66
2023-01-01T13:42:43.141Z,101398.69
2023-01-01T13:45:36.599Z,101405.16
2023-01-01T13:48:16.661Z,101401.34
2023-01-01T13:50:51.168Z,101405.66
2023-01-01T13:53:34.919Z,101402.16
2023-01-01T13:56:16.775Z,101282.81
2023-01-01T13:59:12.214Z,101410.53
2023-01-01T14:02:17.145Z,101415.94
2023-01-01T14:04:47.549Z,101427.34
2023-01-01T14:07:50.060Z,101431.13
2023-01-01T14:10:26.309Z,101441.41
2023-01-01T14:12:57.392Z,101334.28
2023-01-01T14:15:28.304Z,101247.59
2023-01-01T14:18:04.768Z,101351.06
2023-01-01T14:20:36.354Z,101426.44
2023-01-01T14:23:09.037Z,101419.38
2023-01-01T14:25:36.415Z,101426.72
2023-01-01T14:28:05.029Z,101384.84
2023-01-01T14:30:33.158Z,101420.16
2023-01-01T14:33:02.086Z,101420.72
2023-01-01T14:35:29.484Z,101224.84
2023-01-01T14:37:57.073Z,101433.41
2023-01-01T14:40:26.445Z,101321.06
2023-01-01T14:42:57.024Z,101442.50
2023-01-01T14:45:25.971Z,101357.63
2023-01-01T14:47:55.028Z,101440.63
2023-01-01T14:50:29.778Z,101326.38
2023-01-01T14:53:03.407Z,101318.75
2023-01-01T14:55:38.054Z,101454.88
2023-01-01T14:58:05.428Z,101280.50
2023-01-01T15:00:34.498Z,101352.22
2023-01-01T15:03:10.086Z,101440.69
2023-01-01T15:05:39.567Z,101378.84
2023-01-01T15:08:17.928Z,101285.22
2023-01-01T15:10:44.829Z,101361.00
2023-01-01T15:13:18.291Z,101466.25
2023-01-01T15:15:48.553Z,101455.69
2023-01-01T15:18:37.770Z,101465.50
2023-01-01T15:21:08.957Z,101348.69
2023-01-01T15:23:36.620Z,101453.34
2023-01-01T15:26:10.922Z,101452.13
2023-01-01T15:28:37.973Z,101397.66
2023-01-01T15:31:08.928Z,101342.28
2023-01-01T15:33:35.958Z,101330.81
2023-01-01T15:36:02.857Z,101322.09
2023-01-01T15:38:32.587Z,101352.06
2023-01-01T15:40:59.417Z,101453.69
2023-01-01T15:43:28.627Z,101421.09
2023-01-01T15:45:58.178Z,101446.09
2023-01-01T15:48:36.056Z,101482.94
2023-01-01T15:51:06.618Z,101391.06
2023-01-01T15:53:52.049Z,101334.41
2023-01-01T15:56:20.912Z,101282.50
2023-01-01T15:58:52.971Z,101336.53
2023-01-01T16:01:22.521Z,101378.97
2023-01-01T16:03:59.094Z,101481.69
2023-01-01T16:06:26.017Z,101465.94
2023-01-01T16:08:52.778Z,101407.06
2023-01-01T16:11:25.536Z,101282.09
2023-01-01T16:13:52.471Z,101464.88
2023-01-01T16:16:26.995Z,101422.56
2023-01-01T16:18:58.547Z,101264.75
2023-01-01T16:21:26.859Z,101461.53
2023-01-01T16:23:53.721Z,101266.53
2023-01-01T16:26:20.809Z,101471.75
2023-01-01T16:28:48.269Z,101458.53
2023-01-01T16:31:15.834Z,101338.31
2023-01-01T16:33:43.147Z,101294.50
2023-01-01T16:36:12.604Z,101462.59
2023-01-01T16:38:39.367Z,101310.47
2023-01-01T16:41:06.086Z,101426.84
2023-01-01T16:43:32.787Z,101449.34
2023-01-01T16:46:02.194Z,101409.75
2023-01-01T16:48:29.159Z,101456.63
2023-01-01T16:50:55.893Z,101427.78
2023-01-01T16:53:24.070Z,101437.84
2023-01-01T16:55:51.614Z,101410.44
2023-01-01T17:01:05.695Z,101442.91
2023-01-01T17:03:32.552Z,101437.25
2023-01-01T17:06:06.110Z,101438.31
2023-01-01T17:08:35.080Z,101441.03
2023-01-01T17:11:09.462Z,101376.28
2023-01-01T17:13:37.098Z,101445.88
2023-01-01T17:16:04.239Z,101351.94
2023-01-01T17:19:12.837Z,101441.09
2023-01-01T17:21:18.661Z,101444.84
2023-01-01T17:23:47.022Z,101409.22
2023-01-01T17:26:15.584Z,101422.44
2023-01-01T17:28:43.092Z,101425.72
2023-01-01T17:31:11.868Z,101410.78
2023-01-01T17:33:39.550Z,101419.00
2023-01-01T17:36:08.141Z,101415.50
2023-01-01T17:38:35.330Z,101430.38
2023-01-01T17:41:05.971Z,101297.56
2023-01-01T17:43:33.559Z,101261.28
2023-01-01T17:46:04.764Z,101324.56
2023-01-01T17:48:31.449Z,101325.13
2023-01-01T17:50:58.262Z,101210.25
2023-01-01T17:53:25.320Z,101394.97
2023-01-01T17:55:52.048Z,101424.59
2023-01-01T17:58:20.218Z,101396.09
2023-01-01T18:00:46.980Z,101308.50
2023-01-01T18:03:14.218Z,101392.91
2023-01-01T18:05:40.999Z,101273.31
2023-01-01T18:08:07.996Z,101414.94
2023-01-01T18:10:46.490Z,101410.34
2023-01-01T18:13:13.249Z,101380.13
2023-01-01T18:15:43.367Z,101278.56
2023-01-01T18:18:12.503Z,101297.06
2023-01-01T18:20:39.440Z,101249.63
2023-01-01T18:23:08.875Z,101394.56
2023-01-01T18:25:35.638Z,101360.03
2023-01-01T18:28:09.502Z,101202.47
2023-01-01T18:30:43.146Z,101363.75
2023-01-01T18:33:11.299Z,101399.94
2023-01-01T18:35:38.181Z,101319.22
2023-01-01T18:38:05.302Z,101314.63
2023-01-01T18:40:36.747Z,101299.59
2023-01-01T18:43:08.984Z,101398.00
2023-01-01T18:45:36.368Z,101354.81
2023-01-01T18:48:27.883Z,101207.91
2023-01-01T18:51:06.832Z,101185.22
2023-01-01T18:53:45.354Z,101187.97
2023-01-01T18:56:17.519Z,101177.06
2023-01-01T18:58:46.408Z,101342.19
2023-01-01T19:01:28.542Z,101256.88
2023-01-01T19:04:01.191Z,101205.00
2023-01-01T19:06:33.627Z,101366.94
2023-01-01T19:09:16.065Z,101282.81
2023-01-01T19:11:43.690Z,101224.06
2023-01-01T19:14:26.933Z,101315.44
2023-01-01T19:16:59.844Z,101187.97
2023-01-01T19:19:34.711Z,101357.53
2023-01-01T19:22:17.773Z,101228.22
2023-01-01T19:24:50.761Z,101170.66
2023-01-01T19:27:19.057Z,101179.31
2023-01-01T19:29:46.990Z,101330.97
2023-01-01T19:32:13.805Z,101322.31
2023-01-01T19:34:41.927Z,101313.81
2023-01-01T19:37:09.757Z,101327.50
2023-01-01T19:39:36.646Z,101171.25
2023-01-01T19:42:04.276Z,101327.22
2023-01-01T19:44:31.351Z,101340.53
2023-01-01T19:46:58.072Z,101309.59
2023-01-01T19:49:24.921Z,101232.41
2023-01-01T19:51:53.138Z,101283.25
2023-01-01T19:54:19.900Z,101239.44
2023-01-01T19:56:47.268Z,101338.78
2023-01-01T19:59:14.107Z,101330.09
2023-01-01T20:01:42.225Z,101351.03
2023-01-01T20:04:09.273Z,101367.03
2023-01-01T20:06:36.213Z,101205.34
2023-01-01T20:09:04.452Z,101165.44
2023-01-01T20:11:31.185Z,101351.81
2023-01-01T20:13:58.051Z,101366.19
2023-01-01T20:16:24.887Z,101356.72
2023-01-01T20:18:51.654Z,101346.97
2023-01-01T20:21:23.688Z,101363.41
2023-01-01T20:23:53.021Z,101346.31
2023-01-01T20:26:21.194Z,101363.75
2023-01-01T20:28:48.669Z,101319.09
2023-01-01T20:31:15.718Z,101361.53
2023-01-01T20:33:43.100Z,101241.69
2023-01-01T20:36:10.397Z,101313.94
2023-01-01T20:38:40.346Z,101294.06
2023-01-01T20:41:10.595Z,101360.41
2023-01-01T20:43:38.639Z,101353.38
2023-01-01T20:46:05.712Z,101281.88
2023-01-01T20:48:32.492Z,101349.28
2023-01-01T20:50:59.296Z,101341.66
2023-01-01T20:53:26.003Z,101346.81
2023-01-01T20:55:52.898Z,101343.00
2023-01-01T20:58:19.617Z,101339.44
2023-01-01T21:00:48.311Z,101263.59
2023-01-01T21:03:15.310Z,101325.59
2023-01-01T21:05:42.047Z,101308.16
2023-01-01T21:08:08.735Z,101322.84
2023-01-01T21:10:35.665Z,101315.50
2023-01-01T21:13:02.410Z,101317.34
2023-01-01T21:15:29.185Z,101297.25
2023-01-01T21:17:57.882Z,101273.63
2023-01-01T21:20:27.200Z,101300.00
2023-01-01T21:22:58.050Z,101299.97
2023-01-01T21:28:15.518Z,101149.78
2023-01-01T21:30:49.122Z,101187.03
2023-01-01T21:33:26.537Z,101183.53
2023-01-01T21:35:53.899Z,101079.78
2023-01-01T21:38:24.812Z,101271.59
2023-01-01T21:40:53.838Z,101280.81
2023-01-01T21:43:30.417Z,101252.56
2023-01-01T21:46:03.080Z,101262.81
2023-01-01T21:48:33.755Z,101272.91
2023-01-01T21:51:01.635Z,101275.84
2023-01-01T21:53:29.831Z,101243.84
2023-01-01T21:55:57.181Z,101236.66
2023-01-01T21:58:25.718Z,101253.13
2023-01-01T22:00:52.468Z,101257.44
2023-01-01T22:03:19.186Z,101246.59
2023-01-01T22:05:47.417Z,101219.66
2023-01-01T22:08:23.617Z,101245.59
2023-01-01T22:10:50.690Z,101179.31
2023-01-01T22:13:19.488Z,101237.72
2023-01-01T22:15:46.543Z,101195.09
2023-01-01T22:18:22.076Z,101221.75
2023-01-01T22:20:50.899Z,101201.59
2023-01-01T22:23:31.938Z,101189.66
2023-01-01T22:25:58.706Z,101213.88
2023-01-01T22:28:27.214Z,101142.44
2023-01-01T22:30:57.434Z,101138.34
2023-01-01T22:33:32.216Z,101112.28
2023-01-01T22:36:00.370Z,101194.69
2023-01-01T22:38:32.419Z,101053.97
2023-01-01T22:40:59.626Z,101194.69
2023-01-01T22:43:31.381Z,101176.06
2023-01-01T22:45:59.720Z,101168.22
2023-01-01T22:48:32.476Z,101166.81
2023-01-01T22:51:05.388Z,101166.03
2023-01-01T22:53:32.237Z,101163.75
2023-01-01T22:55:59.019Z,101161.06
2023-01-01T22:58:26.560Z,101146.91
2023-01-01T23:00:53.418Z,101150.50
2023-01-01T23:03:20.361Z,101117.22
2023-01-01T23:05:47.053Z,101141.09
2023-01-01T23:08:15.329Z,100967.19
2023-01-01T23:10:42.057Z,101138.38
2023-01-01T23:13:08.812Z,101006.75
2023-01-01T23:15:35.547Z,101124.34
2023-01-01T23:18:02.308Z,101098.81
2023-01-01T23:20:30.698Z,101125.97
2023-01-01T23:22:58.360Z,101120.59
2023-01-01T23:25:27.856Z,101080.72
2023-01-01T23:27:55.383Z,101104.44
2023-01-01T23:30:22.056Z,101101.69
2023-01-01T23:32:51.606Z,101052.28
2023-01-01T23:35:18.579Z,100987.56
2023-01-01T23:37:45.356Z,101094.34
2023-01-01T23:40:12.527Z,101044.34
2023-01-01T23:42:40.840Z,101086.41
2023-01-01T23:45:08.150Z,101086.47
2023-01-01T23:47:35.086Z,101070.16
2023-01-01T23:50:02.453Z,100986.63
2023-01-01T23:52:29.467Z,101081.59
2023-01-01T23:54:56.358Z,100975.22
2023-01-01T23:57:23.329Z,101068.56
2023-01-01T23:59:51.576Z,100883.94
